createdAt,value
2019-04-06T00:00:33.817Z,99.90
2019-04-06T00:03:02.268Z,99.90
2019-04-06T00:05:30.722Z,99.90
2019-04-06T00:07:59.246Z,99.90
2019-04-06T00:10:27.690Z,99.90
2019-04-06T00:12:56.234Z,99.90
2019-04-06T00:15:24.670Z,99.90
2019-04-06T00:17:53.129Z,99.90
2019-04-06T00:20:21.569Z,99.90
2019-04-06T00:22:50.031Z,99.90
2019-04-06T00:25:18.509Z,99.90
2019-04-06T00:27:47.023Z,99.90
2019-04-06T00:30:15.875Z,99.90
2019-04-06T00:32:48.966Z,99.90
2019-04-06T00:35:17.406Z,99.90
2019-04-06T00:37:45.943Z,99.90
2019-04-06T00:40:14.452Z,99.90
2019-04-06T00:42:42.909Z,99.90
2019-04-06T00:45:11.499Z,99.90
2019-04-06T00:47:40.037Z,99.90
2019-04-06T00:50:08.540Z,99.90
2019-04-06T00:52:36.999Z,99.90
2019-04-06T00:55:06.015Z,99.90
2019-04-06T00:57:34.479Z,99.90
2019-04-06T01:00:03.154Z,99.90
2019-04-06T01:02:31.615Z,99.90
2019-04-06T01:05:00.046Z,99.90
2019-04-06T01:07:28.579Z,99.90
2019-04-06T01:09:57.014Z,99.90
2019-04-06T01:12:25.478Z,99.90
2019-04-06T01:14:53.918Z,99.90
2019-04-06T01:17:22.510Z,99.90
2019-04-06T01:19:50.968Z,99.90
2019-04-06T01:22:19.503Z,99.90
2019-04-06T01:24:47.979Z,99.90
2019-04-06T01:27:16.440Z,99.90
2019-04-06T01:29:44.874Z,99.90
2019-04-06T01:32:13.335Z,99.90
2019-04-06T01:34:41.778Z,99.90
2019-04-06T01:37:10.307Z,99.90
2019-04-06T01:39:38.804Z,99.90
2019-04-06T01:42:07.266Z,99.90
2019-04-06T01:44:35.708Z,99.90
2019-04-06T01:47:04.189Z,99.90
2019-04-06T01:49:32.623Z,99.90
2019-04-06T01:52:01.228Z,99.90
2019-04-06T01:54:29.672Z,99.90
2019-04-06T01:56:58.112Z,99.90
2019-04-06T01:59:26.563Z,99.90
2019-04-06T02:01:59.094Z,99.90
2019-04-06T02:04:27.553Z,99.90
2019-04-06T02:06:55.999Z,99.90
2019-04-06T02:09:24.458Z,99.90
2019-04-06T02:11:52.896Z,99.90
2019-04-06T02:14:21.353Z,99.90
2019-04-06T02:16:49.796Z,99.90
2019-04-06T02:19:18.327Z,99.90
2019-04-06T02:21:46.759Z,99.90
2019-04-06T02:24:15.223Z,99.90
2019-04-06T02:26:43.743Z,99.90
2019-04-06T02:29:12.201Z,99.90
2019-04-06T02:31:58.066Z,99.90
2019-04-06T02:34:44.460Z,99.90
2019-04-06T02:37:20.549Z,99.90
2019-04-06T02:39:53.356Z,99.90
2019-04-06T02:42:35.155Z,99.90
2019-04-06T02:45:03.982Z,99.90
2019-04-06T02:47:32.444Z,99.90
2019-04-06T02:50:01.002Z,99.90
2019-04-06T02:52:29.489Z,99.90
2019-04-06T02:54:57.926Z,99.90
2019-04-06T02:57:26.363Z,99.90
2019-04-06T02:59:54.842Z,99.90
2019-04-06T03:02:23.403Z,99.90
2019-04-06T03:04:51.927Z,99.90
2019-04-06T03:07:20.446Z,99.90
2019-04-06T03:09:49.039Z,99.90
2019-04-06T03:12:17.459Z,99.90
2019-04-06T03:14:45.964Z,99.90
2019-04-06T03:17:14.519Z,99.90
2019-04-06T03:19:42.979Z,99.90
2019-04-06T03:22:11.427Z,99.90
2019-04-06T03:24:40.258Z,99.90
2019-04-06T03:27:08.789Z,99.90
2019-04-06T03:29:37.251Z,99.90
2019-04-06T03:32:05.919Z,99.90
2019-04-06T03:34:34.436Z,99.90
2019-04-06T03:37:02.923Z,99.90
2019-04-06T03:39:31.420Z,99.90
2019-04-06T03:41:59.859Z,99.90
2019-04-06T03:44:28.379Z,99.90
2019-04-06T03:46:57.216Z,99.90
2019-04-06T03:49:25.671Z,99.90
2019-04-06T03:51:54.103Z,99.90
2019-04-06T03:54:22.560Z,99.90
2019-04-06T03:56:50.995Z,99.90
2019-04-06T03:59:19.454Z,99.90
2019-04-06T04:01:47.893Z,99.90
2019-04-06T04:04:16.549Z,99.90
2019-04-06T04:06:45.080Z,99.90
2019-04-06T04:09:13.535Z,99.90
2019-04-06T04:11:41.983Z,99.90
2019-04-06T04:14:10.631Z,99.90
2019-04-06T04:16:39.052Z,99.90
2019-04-06T04:19:07.527Z,99.90
2019-04-06T04:21:35.958Z,99.90
2019-04-06T04:24:04.478Z,99.90
2019-04-06T04:26:33.034Z,99.90
2019-04-06T04:29:01.502Z,99.90
2019-04-06T04:31:30.019Z,99.90
2019-04-06T04:33:58.454Z,99.90
2019-04-06T04:36:26.970Z,99.90
2019-04-06T04:38:55.415Z,99.90
2019-04-06T04:41:24.190Z,99.90
2019-04-06T04:43:52.670Z,99.90
2019-04-06T04:46:21.137Z,99.90
2019-04-06T04:48:49.580Z,99.90
2019-04-06T04:51:18.032Z,99.90
2019-04-06T04:53:46.544Z,99.90
2019-04-06T04:56:15.010Z,99.90
2019-04-06T04:58:43.460Z,99.90
2019-04-06T05:01:11.938Z,99.90
2019-04-06T05:03:40.453Z,99.90
2019-04-06T05:06:09.042Z,99.90
2019-04-06T05:08:37.492Z,99.90
2019-04-06T05:11:06.018Z,99.90
2019-04-06T05:13:34.495Z,99.90
2019-04-06T05:16:13.106Z,99.90
2019-04-06T05:18:42.482Z,99.90
2019-04-06T05:21:11.790Z,99.90
2019-04-06T05:23:40.286Z,99.90
2019-04-06T05:26:08.914Z,99.90
2019-04-06T05:28:37.352Z,99.90
2019-04-06T05:31:05.947Z,99.90
2019-04-06T05:33:34.807Z,99.90
2019-04-06T05:36:03.450Z,99.90
2019-04-06T05:38:31.918Z,99.90
2019-04-06T05:41:00.431Z,99.90
2019-04-06T05:43:28.872Z,99.90
2019-04-06T05:45:57.331Z,99.90
2019-04-06T05:48:25.772Z,99.90
2019-04-06T05:50:54.226Z,99.90
2019-04-06T05:53:22.679Z,99.90
2019-04-06T05:55:51.274Z,99.90
2019-04-06T05:58:19.951Z,99.90
2019-04-06T06:00:48.390Z,99.90
2019-04-06T06:03:17.018Z,99.90
2019-04-06T06:05:45.534Z,99.90
2019-04-06T06:08:13.999Z,99.90
2019-04-06T06:10:42.439Z,99.90
2019-04-06T06:13:10.916Z,99.90
2019-04-06T06:15:39.475Z,99.90
2019-04-06T06:18:07.998Z,99.90
2019-04-06T06:20:36.438Z,99.90
2019-04-06T06:23:04.971Z,99.90
2019-04-06T06:25:33.642Z,99.90
2019-04-06T06:28:13.344Z,99.90
2019-04-06T06:30:32.431Z,99.90
2019-04-06T06:33:01.055Z,99.90
2019-04-06T06:35:29.489Z,99.90
2019-04-06T06:37:57.955Z,99.90
2019-04-06T06:40:26.700Z,99.90
2019-04-06T06:42:55.225Z,99.90
2019-04-06T06:45:23.791Z,99.90
2019-04-06T06:47:52.315Z,99.90
2019-04-06T06:50:20.755Z,99.90
2019-04-06T06:52:49.210Z,99.90
2019-04-06T06:55:17.731Z,99.90
2019-04-06T06:57:46.191Z,99.90
2019-04-06T07:00:14.877Z,99.90
2019-04-06T07:02:43.362Z,99.90
2019-04-06T07:05:12.131Z,99.90
2019-04-06T07:07:40.676Z,99.90
2019-04-06T07:10:09.729Z,99.90
2019-04-06T07:12:38.195Z,99.90
2019-04-06T07:15:07.541Z,99.90
2019-04-06T07:17:36.095Z,99.90
2019-04-06T07:20:08.661Z,99.90
2019-04-06T07:22:37.121Z,99.90
2019-04-06T07:25:06.231Z,99.90
2019-04-06T07:27:34.776Z,99.90
2019-04-06T07:30:04.954Z,99.90
2019-04-06T07:32:33.394Z,99.90
2019-04-06T07:35:01.846Z,99.90
2019-04-06T07:37:30.314Z,99.90
2019-04-06T07:39:59.021Z,99.90
2019-04-06T07:42:27.506Z,99.90
2019-04-06T07:44:55.958Z,99.90
2019-04-06T07:47:24.385Z,99.90
2019-04-06T07:49:52.859Z,99.90
2019-04-06T07:52:21.306Z,99.90
2019-04-06T07:54:49.776Z,99.90
2019-04-06T07:57:18.214Z,99.90
2019-04-06T07:59:46.807Z,99.90
2019-04-06T08:02:15.292Z,99.90
2019-04-06T08:04:43.738Z,99.90
2019-04-06T08:07:12.206Z,99.90
2019-04-06T08:09:40.880Z,99.90
2019-04-06T08:12:09.336Z,99.90
2019-04-06T08:14:37.800Z,99.90
2019-04-06T08:17:06.288Z,99.90
2019-04-06T08:19:34.787Z,99.90
2019-04-06T08:22:03.393Z,99.90
2019-04-06T08:24:31.855Z,99.90
2019-04-06T08:27:00.303Z,99.90
2019-04-06T08:29:29.012Z,99.90
2019-04-06T08:31:57.765Z,99.90
2019-04-06T08:34:26.244Z,99.90
2019-04-06T08:36:54.790Z,99.90
2019-04-06T08:39:25.405Z,99.90
2019-04-06T08:41:53.458Z,99.90
2019-04-06T08:44:21.918Z,99.90
2019-04-06T08:46:50.443Z,99.90
2019-04-06T08:49:18.944Z,99.90
2019-04-06T08:51:47.464Z,99.90
2019-04-06T08:54:15.927Z,99.90
2019-04-06T08:56:44.462Z,99.90
2019-04-06T08:59:13.634Z,99.90
2019-04-06T09:01:42.253Z,99.90
2019-04-06T09:04:10.781Z,99.90
2019-04-06T09:06:39.321Z,99.90
2019-04-06T09:09:08.210Z,99.90
2019-04-06T09:11:36.680Z,99.90
2019-04-06T09:14:05.201Z,99.90
2019-04-06T09:16:33.675Z,99.90
2019-04-06T09:19:02.130Z,99.90
2019-04-06T09:21:30.816Z,99.90
2019-04-06T09:23:59.362Z,99.90
2019-04-06T09:26:27.910Z,99.90
2019-04-06T09:28:56.367Z,99.90
2019-04-06T09:31:24.900Z,99.90
2019-04-06T09:33:53.339Z,99.90
2019-04-06T09:36:21.929Z,99.90
2019-04-06T09:38:50.435Z,99.90
2019-04-06T09:41:18.901Z,99.90
2019-04-06T09:43:47.361Z,99.90
2019-04-06T09:46:20.196Z,99.90
2019-04-06T09:48:59.231Z,99.90
2019-04-06T09:51:29.331Z,99.90
2019-04-06T09:54:17.586Z,99.90
2019-04-06T09:57:03.824Z,98.10
2019-04-06T09:59:48.737Z,99.80
2019-04-06T10:02:30.639Z,99.90
2019-04-06T10:05:09.844Z,96.50
2019-04-06T10:07:39.954Z,95.90
2019-04-06T10:10:15.970Z,98.70
2019-04-06T10:12:51.769Z,99.90
2019-04-06T10:15:27.392Z,99.90
2019-04-06T10:18:03.456Z,99.40
2019-04-06T10:20:39.549Z,96.90
2019-04-06T10:23:24.501Z,97.50
2019-04-06T10:26:03.325Z,94.10
2019-04-06T10:28:39.307Z,95.10
2019-04-06T10:31:12.396Z,99.90
2019-04-06T10:33:42.537Z,96.90
2019-04-06T10:36:12.614Z,93.40
2019-04-06T10:38:57.497Z,93.00
2019-04-06T10:41:30.528Z,93.60
2019-04-06T10:44:00.619Z,96.60
2019-04-06T10:46:30.835Z,90.10
2019-04-06T10:49:16.891Z,90.00
2019-04-06T10:51:46.979Z,84.70
2019-04-06T10:54:28.755Z,88.10
2019-04-06T10:56:58.842Z,90.60
2019-04-06T10:59:28.916Z,85.60
2019-04-06T11:02:15.250Z,90.10
2019-04-06T11:04:45.356Z,87.10
2019-04-06T11:07:30.186Z,85.10
2019-04-06T11:10:00.370Z,82.40
2019-04-06T11:12:39.462Z,85.60
2019-04-06T11:15:09.820Z,84.40
2019-04-06T11:17:55.405Z,79.40
2019-04-06T11:20:43.669Z,82.90
2019-04-06T11:23:19.502Z,77.20
2019-04-06T11:25:49.606Z,79.20
2019-04-06T11:28:19.980Z,81.90
2019-04-06T11:30:58.570Z,77.00
2019-04-06T11:33:28.966Z,78.50
2019-04-06T11:36:05.004Z,77.90
2019-04-06T11:38:52.999Z,77.70
2019-04-06T11:41:23.102Z,74.00
2019-04-06T11:43:58.902Z,78.90
2019-04-06T11:46:32.303Z,76.70
2019-04-06T11:49:11.181Z,80.00
2019-04-06T11:51:52.889Z,80.20
2019-04-06T11:54:37.601Z,85.70
2019-04-06T11:57:07.799Z,82.80
2019-04-06T11:59:46.788Z,81.20
2019-04-06T12:02:23.003Z,86.90
2019-04-06T12:04:53.091Z,91.60
2019-04-06T12:07:26.141Z,87.60
2019-04-06T12:10:05.223Z,92.50
2019-04-06T12:12:44.399Z,91.00
2019-04-06T12:15:14.549Z,93.30
2019-04-06T12:17:53.634Z,92.00
2019-04-06T12:20:29.454Z,92.00
2019-04-06T12:23:17.787Z,95.30
2019-04-06T12:25:59.905Z,93.80
2019-04-06T12:28:32.463Z,88.20
2019-04-06T12:31:11.253Z,92.00
2019-04-06T12:33:44.241Z,95.30
2019-04-06T12:36:20.131Z,94.10
2019-04-06T12:38:55.893Z,92.70
2019-04-06T12:41:26.240Z,90.90
2019-04-06T12:44:05.505Z,94.10
2019-04-06T12:46:44.635Z,92.90
2019-04-06T12:49:23.441Z,94.90
2019-04-06T12:52:05.737Z,98.40
2019-04-06T12:54:41.957Z,94.80
2019-04-06T12:57:27.029Z,95.50
2019-04-06T12:59:59.704Z,95.10
2019-04-06T13:02:32.473Z,93.50
2019-04-06T13:05:12.777Z,95.20
2019-04-06T13:07:59.795Z,98.70
2019-04-06T13:10:38.812Z,99.90
2019-04-06T13:13:11.614Z,99.90
2019-04-06T13:15:41.738Z,99.00
2019-04-06T13:18:17.511Z,99.30
2019-04-06T13:20:53.181Z,97.30
2019-04-06T13:23:23.293Z,96.50
2019-04-06T13:26:07.924Z,96.00
2019-04-06T13:28:53.750Z,93.30
2019-04-06T13:31:38.912Z,93.20
2019-04-06T13:34:17.835Z,92.70
2019-04-06T13:36:54.094Z,94.00
2019-04-06T13:39:27.324Z,93.60
2019-04-06T13:42:00.039Z,93.50
2019-04-06T13:44:46.243Z,91.30
2019-04-06T13:47:19.303Z,90.50
2019-04-06T13:49:55.595Z,89.80
2019-04-06T13:52:28.660Z,88.30
2019-04-06T13:54:58.796Z,87.20
2019-04-06T13:57:31.412Z,87.10
2019-04-06T14:00:01.515Z,86.90
2019-04-06T14:02:46.227Z,85.70
2019-04-06T14:05:16.361Z,85.70
2019-04-06T14:07:46.501Z,78.50
2019-04-06T14:10:19.375Z,78.80
2019-04-06T14:12:49.470Z,78.30
2019-04-06T14:15:34.435Z,76.40
2019-04-06T14:18:10.467Z,78.60
2019-04-06T14:20:56.931Z,77.00
2019-04-06T14:23:29.978Z,75.10
2019-04-06T14:26:16.334Z,73.20
2019-04-06T14:28:55.474Z,71.60
2019-04-06T14:31:43.695Z,72.70
2019-04-06T14:34:19.508Z,71.30
2019-04-06T14:37:05.578Z,72.10
2019-04-06T14:39:51.704Z,69.00
2019-04-06T14:42:24.984Z,70.50
2019-04-06T14:45:03.898Z,71.30
2019-04-06T14:47:34.000Z,72.20
2019-04-06T14:50:09.821Z,73.10
2019-04-06T14:52:45.438Z,72.80
2019-04-06T14:55:21.445Z,70.10
2019-04-06T14:58:06.592Z,71.00
2019-04-06T15:00:53.252Z,69.40
2019-04-06T15:03:32.464Z,69.10
2019-04-06T15:06:11.634Z,70.70
2019-04-06T15:08:56.665Z,74.20
2019-04-06T15:11:41.602Z,71.70
2019-04-06T15:14:27.716Z,74.40
2019-04-06T15:16:58.076Z,76.80
2019-04-06T15:19:33.910Z,77.40
2019-04-06T15:22:04.380Z,77.30
2019-04-06T15:24:37.392Z,77.20
2019-04-06T15:27:22.783Z,73.40
2019-04-06T15:30:01.554Z,70.10
2019-04-06T15:32:50.223Z,69.30
2019-04-06T15:35:29.136Z,68.90
2019-04-06T15:38:15.384Z,69.40
2019-04-06T15:40:57.338Z,68.80
2019-04-06T15:43:43.660Z,69.00
2019-04-06T15:46:30.963Z,70.20
2019-04-06T15:49:13.659Z,70.20
2019-04-06T15:51:49.831Z,71.60
2019-04-06T15:54:19.974Z,72.20
2019-04-06T15:56:52.794Z,69.50
2019-04-06T15:59:25.509Z,70.90
2019-04-06T16:02:01.482Z,69.70
2019-04-06T16:04:30.132Z,70.70
2019-04-06T16:07:00.395Z,71.90
2019-04-06T16:09:33.484Z,76.30
2019-04-06T16:12:06.717Z,75.00
2019-04-06T16:14:36.857Z,76.70
2019-04-06T16:17:24.099Z,75.50
2019-04-06T16:20:12.430Z,77.20
2019-04-06T16:22:45.662Z,78.40
2019-04-06T16:25:18.622Z,78.90
2019-04-06T16:27:48.712Z,80.00
2019-04-06T16:30:22.376Z,80.40
2019-04-06T16:33:09.084Z,81.50
2019-04-06T16:35:45.807Z,82.30
2019-04-06T16:38:18.859Z,84.30
2019-04-06T16:41:07.576Z,82.30
2019-04-06T16:43:37.769Z,82.30
2019-04-06T16:46:08.275Z,83.90
2019-04-06T16:48:41.169Z,84.70
2019-04-06T16:51:17.692Z,86.00
2019-04-06T16:54:03.861Z,86.80
2019-04-06T16:56:43.015Z,87.40
2019-04-06T16:59:13.112Z,88.30
2019-04-06T17:01:43.217Z,87.40
2019-04-06T17:04:28.188Z,88.20
2019-04-06T17:07:03.722Z,89.20
2019-04-06T17:09:51.447Z,89.40
2019-04-06T17:12:37.627Z,90.10
2019-04-06T17:15:08.450Z,89.80
2019-04-06T17:17:44.300Z,90.30
2019-04-06T17:20:26.665Z,90.70
2019-04-06T17:22:56.775Z,91.30
2019-04-06T17:25:32.712Z,91.20
2019-04-06T17:28:08.317Z,91.20
2019-04-06T17:30:38.472Z,91.50
2019-04-06T17:33:11.576Z,92.60
2019-04-06T17:35:44.775Z,93.50
2019-04-06T17:38:18.065Z,94.50
2019-04-06T17:40:51.068Z,95.60
2019-04-06T17:43:39.330Z,96.10
2019-04-06T17:46:21.251Z,97.00
2019-04-06T17:48:56.928Z,97.90
2019-04-06T17:51:29.925Z,98.70
2019-04-06T17:54:03.069Z,99.30
2019-04-06T17:56:36.127Z,99.90
2019-04-06T17:59:09.389Z,99.90
2019-04-06T18:01:42.684Z,99.90
2019-04-06T18:04:29.383Z,99.90
2019-04-06T18:07:05.305Z,99.90
2019-04-06T18:09:35.426Z,99.90
2019-04-06T18:12:11.484Z,99.90
2019-04-06T18:14:40.013Z,99.90
2019-04-06T18:17:08.839Z,99.90
2019-04-06T18:19:37.420Z,99.90
2019-04-06T18:22:05.869Z,99.90
2019-04-06T18:24:34.342Z,99.90
2019-04-06T18:27:02.821Z,99.90
2019-04-06T18:29:31.372Z,99.90
2019-04-06T18:32:10.354Z,99.90
2019-04-06T18:34:38.852Z,99.90
2019-04-06T18:37:21.312Z,99.90
2019-04-06T18:39:51.610Z,99.90
2019-04-06T18:42:20.127Z,99.90
2019-04-06T18:44:48.599Z,99.90
2019-04-06T18:47:17.547Z,99.90
2019-04-06T18:49:46.096Z,99.90
2019-04-06T18:52:14.562Z,99.90
2019-04-06T18:54:43.070Z,99.90
2019-04-06T18:57:11.793Z,99.90
2019-04-06T18:59:40.354Z,99.90
2019-04-06T19:02:08.853Z,99.90
2019-04-06T19:04:37.385Z,99.90
2019-04-06T19:07:06.127Z,99.90
2019-04-06T19:09:35.048Z,99.90
2019-04-06T19:12:04.278Z,99.90
2019-04-06T19:14:32.838Z,99.90
2019-04-06T19:17:01.374Z,99.90
2019-04-06T19:19:29.827Z,99.90
2019-04-06T19:21:58.312Z,99.90
2019-04-06T19:24:27.085Z,99.90
2019-04-06T19:26:55.638Z,99.90
2019-04-06T19:29:24.095Z,99.90
2019-04-06T19:31:52.628Z,99.90
2019-04-06T19:34:21.579Z,99.90
2019-04-06T19:36:50.148Z,99.90
2019-04-06T19:39:18.747Z,99.90
2019-04-06T19:41:47.333Z,99.90
2019-04-06T19:44:15.965Z,99.90
2019-04-06T19:50:12.492Z,99.90
2019-04-06T19:52:41.557Z,99.90
2019-04-06T19:55:10.423Z,99.90
2019-04-06T19:57:58.635Z,99.90
2019-04-06T20:00:27.270Z,99.90
2019-04-06T20:02:56.168Z,99.90
2019-04-06T20:05:25.140Z,99.90
2019-04-06T20:07:54.052Z,99.90
2019-04-06T20:10:23.062Z,99.90
2019-04-06T20:12:52.013Z,99.90
2019-04-06T20:15:20.502Z,99.90
2019-04-06T20:17:48.967Z,99.90
2019-04-06T20:20:17.491Z,99.90
2019-04-06T20:22:46.045Z,99.90
2019-04-06T20:25:14.995Z,99.90
2019-04-06T20:27:43.547Z,99.90
2019-04-06T20:30:12.317Z,99.90
2019-04-06T20:32:40.774Z,99.90
2019-04-06T20:35:09.484Z,99.90
2019-04-06T20:37:38.547Z,99.90
2019-04-06T20:40:08.791Z,99.90
2019-04-06T20:42:37.310Z,99.90
2019-04-06T20:45:09.274Z,99.90
2019-04-06T20:47:37.786Z,99.90
2019-04-06T20:50:07.174Z,99.90
2019-04-06T20:52:36.083Z,99.90
2019-04-06T20:55:06.403Z,99.90
2019-04-06T20:57:34.896Z,99.90
2019-04-06T21:00:05.017Z,99.90
2019-04-06T21:02:34.036Z,99.90
2019-04-06T21:05:03.032Z,99.90
2019-04-06T21:07:31.586Z,99.90
2019-04-06T21:10:00.596Z,99.90
2019-04-06T21:12:29.202Z,99.90
2019-04-06T21:14:57.671Z,99.90
2019-04-06T21:17:26.600Z,99.90
2019-04-06T21:19:55.172Z,99.90
2019-04-06T21:22:23.917Z,99.90
2019-04-06T21:24:53.167Z,99.90
2019-04-06T21:27:21.772Z,99.90
2019-04-06T21:29:50.735Z,99.90
2019-04-06T21:32:19.290Z,99.90
2019-04-06T21:34:48.361Z,99.90
2019-04-06T21:37:16.960Z,99.90
2019-04-06T21:39:45.436Z,99.90
2019-04-06T21:42:14.466Z,99.90
2019-04-06T21:44:43.443Z,99.90
2019-04-06T21:47:12.155Z,99.90
2019-04-06T21:49:40.733Z,99.90
2019-04-06T21:52:09.242Z,99.90
2019-04-06T21:54:37.741Z,99.90
2019-04-06T21:57:06.249Z,99.90
2019-04-06T21:59:34.762Z,99.90
2019-04-06T22:02:03.418Z,99.90
2019-04-06T22:04:31.874Z,99.90
2019-04-06T22:07:00.934Z,99.90
2019-04-06T22:09:29.728Z,99.90
2019-04-06T22:11:58.463Z,99.90
2019-04-06T22:14:26.999Z,99.90
2019-04-06T22:16:55.983Z,99.90
2019-04-06T22:19:25.247Z,99.90
2019-04-06T22:21:54.339Z,99.90
2019-04-06T22:24:22.855Z,99.90
2019-04-06T22:26:51.878Z,99.90
2019-04-06T22:29:20.731Z,99.90
2019-04-06T22:31:49.240Z,99.90
2019-04-06T22:34:17.835Z,99.90
2019-04-06T22:36:46.787Z,99.90
2019-04-06T22:39:15.408Z,99.90
2019-04-06T22:41:43.891Z,99.90
2019-04-06T22:44:12.334Z,99.90
2019-04-06T22:46:40.841Z,99.90
2019-04-06T22:49:09.328Z,99.90
2019-04-06T22:51:37.973Z,99.90
2019-04-06T22:54:06.815Z,99.90
2019-04-06T22:56:35.328Z,99.90
2019-04-06T22:59:03.868Z,99.90
2019-04-06T23:01:34.573Z,99.90
2019-04-06T23:04:07.658Z,99.90
2019-04-06T23:06:56.297Z,99.90
2019-04-06T23:09:24.758Z,99.90
2019-04-06T23:11:54.146Z,99.90
2019-04-06T23:14:22.782Z,99.90
2019-04-06T23:16:51.250Z,99.90
2019-04-06T23:19:20.228Z,99.90
2019-04-06T23:21:48.878Z,99.90
2019-04-06T23:24:17.374Z,99.90
2019-04-06T23:26:45.848Z,99.90
2019-04-06T23:29:14.421Z,99.90
2019-04-06T23:31:42.918Z,99.90
2019-04-06T23:34:11.769Z,99.90
2019-04-06T23:36:40.667Z,99.90
2019-04-06T23:39:09.336Z,99.90
2019-04-06T23:41:37.895Z,99.90
2019-04-06T23:44:06.802Z,99.90
2019-04-06T23:46:35.263Z,99.90
2019-04-06T23:49:03.814Z,99.90
2019-04-06T23:51:32.257Z,99.90
2019-04-06T23:54:00.709Z,99.90
2019-04-06T23:56:29.162Z,99.90
2019-04-06T23:58:58.039Z,99.90
